Time;durP1;ratioP1;P1;durP2;ratioP2;P2;SDS_P1;SDS_P2;PMS_P1;PMS_P2;Temp;Humidity;BMP_temperature;BMP_pressure;BME280_temperature;BME280_humidity;BME280_pressure;Samples;Min_cycle;Max_cycle;Signal;HPM_P1;HPM_P2
2023/12/02 00:02:10;;;;;;;;;;;;;;;;;;5132400;28;19930;-45
2023/12/02 00:04:35;;;;;;;;;;;;;;;;;;5132262;28;20010;-48
2023/12/02 00:07:01;;;;;;;;;;;;;;;;;;5132411;28;19930;-46
2023/12/02 00:09:26;;;;;;;;;;;;;;;;;;5132307;28;19965;-47
2023/12/02 00:11:51;;;;;;;;;;;;;;;;;;5132687;28;20014;-46
2023/12/02 00:14:17;;;;;;;;;;;;;;;;;;5131935;28;20314;-45
2023/12/02 00:16:42;;;;;;;;;;;;;;;;;;5132247;28;19945;-45
2023/12/02 00:19:08;;;;;;;;;;;;;;;;;;5131821;28;20422;-43
2023/12/02 00:21:33;;;;;;;;;;;;;;;;;;5132267;28;20365;-46
2023/12/02 00:23:59;;;;;;;;;;;;;;;;;;5132548;28;20007;-44
2023/12/02 00:26:24;;;;;;;;;;;;;;;;;;5132494;28;20006;-45
2023/12/02 00:28:50;;;;;;;;;;;;;;;;;;5132665;28;19930;-46
2023/12/02 00:31:16;;;;;;;;;;;;;;;;;;5132179;28;19930;-45
2023/12/02 00:33:42;;;;;;;;;;;;;;;;;;5132082;28;19980;-48
2023/12/02 00:36:07;;;;;;;;;;;;;;;;;;5132086;28;19963;-45
2023/12/02 00:38:33;;;;;;;;;;;;;;;;;;5134663;27;20018;-44
2023/12/02 00:40:58;;;;;;;;;;;;;;;;;;5136052;28;19930;-43
2023/12/02 00:43:24;;;;;;;;;;;;;;;;;;5135524;28;19924;-46
2023/12/02 00:45:49;;;;;;;;;;;;;;;;;;5135388;28;20425;-43
2023/12/02 00:48:15;;;;;;;;;;;;;;;;;;5135840;28;19927;-45
2023/12/02 00:50:40;;;;;;;;;;;;;;;;;;5135181;27;20074;-47
2023/12/02 00:53:06;;;;;;;;;;;;;;;;;;5135513;28;19924;-44
2023/12/02 00:55:31;;;;;;;;;;;;;;;;;;5134644;28;19923;-43
2023/12/02 00:57:57;;;;;;;;;;;;;;;;;;5135524;28;20374;-44
2023/12/02 01:00:22;;;;;;;;;;;;;;;;;;5135627;28;20027;-44
2023/12/02 01:02:48;;;;;;;;;;;;;;;;;;5135129;28;20069;-48
2023/12/02 01:05:13;;;;;;;;;;;;;;;;;;5135362;28;19969;-45
2023/12/02 01:07:39;;;;;;;;;;;;;;;;;;5135550;28;19930;-44
2023/12/02 01:10:04;;;;;;;;;;;;;;;;;;5135121;28;20343;-45
2023/12/02 01:12:30;;;;;;;;;;;;;;;;;;5135509;28;19923;-43
2023/12/02 01:14:55;;;;;;;;;;;;;;;;;;5132792;28;20018;-43
2023/12/02 01:17:21;;;;;;;;;;;;;;;;;;5134680;28;19931;-44
2023/12/02 01:19:47;;;;;;;;;;;;;;;;;;5134730;28;19923;-44
2023/12/02 01:22:12;;;;;;;;;;;;;;;;;;5134415;28;19923;-45
2023/12/02 01:24:38;;;;;;;;;;;;;;;;;;5134374;28;19945;-43
2023/12/02 01:27:03;;;;;;;;;;;;;;;;;;5135076;28;19927;-44
2023/12/02 01:29:29;;;;;;;;;;;;;;;;;;5135269;28;19966;-45
2023/12/02 01:31:54;;;;;;;;;;;;;;;;;;5134716;28;19930;-47
2023/12/02 01:34:19;;;;;;;;;;;;;;;;;;5135015;28;19927;-46
2023/12/02 01:36:45;;;;;;;;;;;;;;;;;;5134764;28;19963;-45
2023/12/02 01:39:12;;;;;;;;;;;;;;;;;;5134609;28;20351;-48
2023/12/02 01:41:37;;;;;;;;;;;;;;;;;;5134686;28;19923;-47
2023/12/02 01:44:03;;;;;;;;;;;;;;;;;;5134140;28;20367;-44
2023/12/02 01:46:29;;;;;;;;;;;;;;;;;;5134946;28;19984;-43
2023/12/02 01:48:55;;;;;;;;;;;;;;;;;;5134820;27;19950;-44
2023/12/02 01:51:20;;;;;;;;;;;;;;;;;;5134118;28;20286;-45
2023/12/02 01:53:46;;;;;;;;;;;;;;;;;;5134337;28;19928;-46
2023/12/02 01:56:11;;;;;;;;;;;;;;;;;;5134130;28;19970;-45
2023/12/02 01:58:37;;;;;;;;;;;;;;;;;;5134122;28;19963;-44
2023/12/02 02:01:02;;;;;;;;;;;;;;;;;;5134579;28;20383;-43
2023/12/02 02:03:28;;;;;;;;;;;;;;;;;;5134058;28;19923;-46
2023/12/02 02:05:53;;;;;;;;;;;;;;;;;;5134485;28;20018;-45
2023/12/02 02:08:19;;;;;;;;;;;;;;;;;;5134349;28;19962;-43
2023/12/02 02:10:44;;;;;;;;;;;;;;;;;;5134370;28;19966;-45
2023/12/02 02:13:10;;;;;;;;;;;;;;;;;;5134456;28;19970;-45
2023/12/02 02:15:35;;;;;;;;;;;;;;;;;;5133668;28;19931;-43
2023/12/02 02:18:00;;;;;;;;;;;;;;;;;;5134543;28;19923;-45
2023/12/02 02:20:26;;;;;;;;;;;;;;;;;;5134357;28;19938;-46
2023/12/02 02:22:51;;;;;;;;;;;;;;;;;;5133221;28;19931;-45
2023/12/02 02:25:17;;;;;;;;;;;;;;;;;;5133501;28;19977;-42
2023/12/02 02:27:42;;;;;;;;;;;;;;;;;;5134113;28;19969;-44
2023/12/02 02:30:08;;;;;;;;;;;;;;;;;;5134246;28;19975;-42
2023/12/02 02:32:33;;;;;;;;;;;;;;;;;;5133844;28;19966;-44
2023/12/02 02:34:59;;;;;;;;;;;;;;;;;;5133797;28;20010;-44
2023/12/02 02:37:24;;;;;;;;;;;;;;;;;;5133818;28;19976;-46
2023/12/02 02:39:49;;;;;;;;;;;;;;;;;;5133547;28;19958;-43
2023/12/02 02:42:16;;;;;;;;;;;;;;;;;;5133699;28;19970;-42
2023/12/02 02:44:41;;;;;;;;;;;;;;;;;;5133059;28;19928;-44
2023/12/02 02:47:06;;;;;;;;;;;;;;;;;;5133938;28;19966;-43
2023/12/02 02:49:32;;;;;;;;;;;;;;;;;;5133955;28;19931;-46
2023/12/02 02:51:57;;;;;;;;;;;;;;;;;;5133750;28;19982;-43
2023/12/02 02:54:23;;;;;;;;;;;;;;;;;;5133460;28;19951;-45
2023/12/02 02:56:49;;;;;;;;;;;;;;;;;;5133312;28;20048;-45
2023/12/02 02:59:15;;;;;;;;;;;;;;;;;;5133205;28;19923;-43
2023/12/02 03:01:40;;;;;;;;;;;;;;;;;;5133153;27;20049;-41
2023/12/02 03:04:05;;;;;;;;;;;;;;;;;;5133431;28;20056;-43
2023/12/02 03:06:31;;;;;;;;;;;;;;;;;;5133371;28;19959;-42
2023/12/02 03:08:56;;;;;;;;;;;;;;;;;;5133341;28;20013;-42
2023/12/02 03:11:22;;;;;;;;;;;;;;;;;;5133352;28;19932;-44
2023/12/02 03:13:47;;;;;;;;;;;;;;;;;;5133216;28;20340;-44
2023/12/02 03:16:13;;;;;;;;;;;;;;;;;;5132797;28;20032;-47
2023/12/02 03:18:38;;;;;;;;;;;;;;;;;;5133386;28;20022;-42
2023/12/02 03:21:04;;;;;;;;;;;;;;;;;;5133480;28;19998;-44
2023/12/02 03:23:29;;;;;;;;;;;;;;;;;;5132971;28;20018;-42
2023/12/02 03:25:55;;;;;;;;;;;;;;;;;;5132486;28;19970;-48
2023/12/02 03:28:22;;;;;;;;;;;;;;;;;;5133375;28;19924;-45
2023/12/02 03:30:47;;;;;;;;;;;;;;;;;;5133095;28;19965;-43
2023/12/02 03:33:13;;;;;;;;;;;;;;;;;;5132574;28;19927;-44
2023/12/02 03:35:39;;;;;;;;;;;;;;;;;;5132821;28;19929;-43
2023/12/02 03:38:04;;;;;;;;;;;;;;;;;;5132580;28;19937;-42
2023/12/02 03:40:30;;;;;;;;;;;;;;;;;;5132997;28;20019;-45
2023/12/02 03:42:55;;;;;;;;;;;;;;;;;;5133158;28;20317;-44
2023/12/02 03:45:21;;;;;;;;;;;;;;;;;;5132426;28;20307;-45
2023/12/02 03:47:47;;;;;;;;;;;;;;;;;;5132891;28;19968;-42
2023/12/02 03:50:12;;;;;;;;;;;;;;;;;;5132554;28;20262;-42
2023/12/02 03:52:40;;;;;;;;;;;;;;;;;;5131983;28;19971;-44
2023/12/02 03:55:07;;;;;;;;;;;;;;;;;;5131422;28;19924;-45
2023/12/02 03:57:32;;;;;;;;;;;;;;;;;;5132494;28;19972;-45
2023/12/02 03:59:58;;;;;;;;;;;;;;;;;;5132286;28;19977;-43
2023/12/02 04:02:23;;;;;;;;;;;;;;;;;;5132441;28;20003;-42
2023/12/02 04:04:48;;;;;;;;;;;;;;;;;;5125713;28;20006;-44
2023/12/02 04:07:14;;;;;;;;;;;;;;;;;;5132932;28;19934;-42
2023/12/02 04:09:39;;;;;;;;;;;;;;;;;;5132522;28;20316;-45
2023/12/02 04:12:05;;;;;;;;;;;;;;;;;;5132876;27;20008;-42
2023/12/02 04:14:30;;;;;;;;;;;;;;;;;;5135359;28;19924;-44
2023/12/02 04:16:56;;;;;;;;;;;;;;;;;;5136011;28;20416;-44
2023/12/02 04:19:22;;;;;;;;;;;;;;;;;;5136455;28;20378;-45
2023/12/02 04:21:48;;;;;;;;;;;;;;;;;;5135892;28;19930;-42
2023/12/02 04:24:13;;;;;;;;;;;;;;;;;;5136203;28;19923;-44
2023/12/02 04:26:38;;;;;;;;;;;;;;;;;;5135099;28;20381;-45
2023/12/02 04:29:04;;;;;;;;;;;;;;;;;;5135941;28;19945;-43
2023/12/02 04:31:29;;;;;;;;;;;;;;;;;;5135928;28;19930;-47
2023/12/02 04:33:55;;;;;;;;;;;;;;;;;;5135900;28;19959;-46
2023/12/02 04:36:20;;;;;;;;;;;;;;;;;;5135586;28;19967;-44
2023/12/02 04:38:46;;;;;;;;;;;;;;;;;;5135581;28;20014;-42
2023/12/02 04:41:11;;;;;;;;;;;;;;;;;;5135821;28;19923;-42
2023/12/02 04:43:37;;;;;;;;;;;;;;;;;;5135599;28;19939;-46
2023/12/02 04:46:02;;;;;;;;;;;;;;;;;;5135714;28;19970;-44
2023/12/02 04:48:28;;;;;;;;;;;;;;;;;;5136055;28;20068;-42
2023/12/02 04:50:53;;;;;;;;;;;;;;;;;;5135740;27;19933;-45
2023/12/02 04:53:18;;;;;;;;;;;;;;;;;;5135723;28;20382;-48
2023/12/02 04:55:44;;;;;;;;;;;;;;;;;;5135495;28;20401;-45
2023/12/02 04:58:09;;;;;;;;;;;;;;;;;;5134939;28;19924;-45
2023/12/02 05:00:35;;;;;;;;;;;;;;;;;;5135233;28;19955;-44
2023/12/02 05:03:00;;;;;;;;;;;;;;;;;;5134955;28;20351;-46
2023/12/02 05:05:26;;;;;;;;;;;;;;;;;;5135392;28;19924;-43
2023/12/02 05:07:51;;;;;;;;;;;;;;;;;;5135704;28;20022;-45
2023/12/02 05:10:17;;;;;;;;;;;;;;;;;;5135104;28;19933;-42
2023/12/02 05:12:42;;;;;;;;;;;;;;;;;;5135299;28;20328;-44
2023/12/02 05:15:09;;;;;;;;;;;;;;;;;;5134969;28;19970;-42
2023/12/02 05:17:34;;;;;;;;;;;;;;;;;;5134809;28;19927;-42
2023/12/02 05:20:00;;;;;;;;;;;;;;;;;;5135352;28;19950;-44
2023/12/02 05:22:25;;;;;;;;;;;;;;;;;;5135501;28;19959;-45
2023/12/02 05:24:51;;;;;;;;;;;;;;;;;;5134806;27;19923;-43
2023/12/02 05:27:16;;;;;;;;;;;;;;;;;;5134743;28;20031;-44
2023/12/02 05:29:42;;;;;;;;;;;;;;;;;;5134393;28;19968;-44
2023/12/02 05:32:07;;;;;;;;;;;;;;;;;;5135015;28;20390;-44
2023/12/02 05:34:33;;;;;;;;;;;;;;;;;;5134675;28;20347;-45
2023/12/02 05:36:58;;;;;;;;;;;;;;;;;;5134511;28;20406;-44
2023/12/02 05:39:24;;;;;;;;;;;;;;;;;;5134364;28;20346;-44
2023/12/02 05:41:49;;;;;;;;;;;;;;;;;;5134882;28;20039;-44
2023/12/02 05:44:15;;;;;;;;;;;;;;;;;;5134563;28;19923;-45
2023/12/02 05:46:40;;;;;;;;;;;;;;;;;;5134695;28;19946;-43
2023/12/02 05:49:06;;;;;;;;;;;;;;;;;;5135058;28;20363;-45
2023/12/02 05:51:31;;;;;;;;;;;;;;;;;;5134894;28;19971;-41
2023/12/02 05:53:58;;;;;;;;;;;;;;;;;;5134668;28;20346;-41
2023/12/02 05:56:24;;;;;;;;;;;;;;;;;;5134716;28;19935;-44
2023/12/02 05:58:49;;;;;;;;;;;;;;;;;;5133647;28;19973;-44
2023/12/02 06:01:15;;;;;;;;;;;;;;;;;;5134401;28;19970;-44
2023/12/02 06:03:40;;;;;;;;;;;;;;;;;;5134099;28;19954;-42
2023/12/02 06:06:06;;;;;;;;;;;;;;;;;;5134303;28;19963;-43
2023/12/02 06:08:31;;;;;;;;;;;;;;;;;;5134480;28;19924;-44
2023/12/02 06:10:57;;;;;;;;;;;;;;;;;;5134361;28;20010;-45
2023/12/02 06:13:22;;;;;;;;;;;;;;;;;;5134230;28;19923;-42
2023/12/02 06:15:48;;;;;;;;;;;;;;;;;;5134092;28;19967;-45
2023/12/02 06:18:13;;;;;;;;;;;;;;;;;;5133728;28;19927;-43
2023/12/02 06:20:39;;;;;;;;;;;;;;;;;;5134354;28;19963;-41
2023/12/02 06:23:04;;;;;;;;;;;;;;;;;;5133894;28;19931;-44
2023/12/02 06:25:29;;;;;;;;;;;;;;;;;;5134009;28;20002;-44
2023/12/02 06:27:55;;;;;;;;;;;;;;;;;;5134135;28;20030;-44
2023/12/02 06:30:20;;;;;;;;;;;;;;;;;;5133205;28;19923;-44
2023/12/02 06:32:46;;;;;;;;;;;;;;;;;;5133749;28;19924;-45
2023/12/02 06:35:12;;;;;;;;;;;;;;;;;;5133009;27;20279;-44
2023/12/02 06:37:37;;;;;;;;;;;;;;;;;;5133034;28;19931;-42
2023/12/02 06:40:03;;;;;;;;;;;;;;;;;;5133394;28;19927;-47
2023/12/02 06:42:29;;;;;;;;;;;;;;;;;;5133225;28;19923;-42
2023/12/02 06:44:54;;;;;;;;;;;;;;;;;;5133100;28;19958;-44
2023/12/02 06:47:20;;;;;;;;;;;;;;;;;;5133385;28;19927;-44
2023/12/02 06:49:46;;;;;;;;;;;;;;;;;;5133936;28;20010;-45
2023/12/02 06:52:12;;;;;;;;;;;;;;;;;;5133921;28;19923;-45
2023/12/02 06:54:37;;;;;;;;;;;;;;;;;;5133906;28;19931;-43
2023/12/02 06:57:03;;;;;;;;;;;;;;;;;;5133665;28;20394;-44
2023/12/02 06:59:28;;;;;;;;;;;;;;;;;;5133414;28;20022;-43
2023/12/02 07:01:54;;;;;;;;;;;;;;;;;;5133419;28;19976;-45
2023/12/02 07:04:19;;;;;;;;;;;;;;;;;;5133621;28;20396;-43
2023/12/02 07:06:44;;;;;;;;;;;;;;;;;;5132980;28;19947;-43
2023/12/02 07:09:11;;;;;;;;;;;;;;;;;;5133416;28;20006;-43
2023/12/02 07:11:36;;;;;;;;;;;;;;;;;;5133558;28;19973;-42
2023/12/02 07:14:03;;;;;;;;;;;;;;;;;;5133026;28;20010;-45
2023/12/02 07:16:28;;;;;;;;;;;;;;;;;;5133591;28;19927;-43
2023/12/02 07:18:53;;;;;;;;;;;;;;;;;;5132995;28;19954;-43
2023/12/02 07:21:19;;;;;;;;;;;;;;;;;;5133575;28;19970;-43
2023/12/02 07:23:44;;;;;;;;;;;;;;;;;;5132924;28;19924;-45
2023/12/02 07:26:10;;;;;;;;;;;;;;;;;;5132865;28;20365;-45
2023/12/02 07:28:35;;;;;;;;;;;;;;;;;;5133112;28;19923;-44
2023/12/02 07:31:01;;;;;;;;;;;;;;;;;;5132877;28;19938;-44
2023/12/02 07:33:26;;;;;;;;;;;;;;;;;;5132858;28;20411;-43
2023/12/02 07:35:52;;;;;;;;;;;;;;;;;;5133314;28;19924;-45
2023/12/02 07:38:17;;;;;;;;;;;;;;;;;;5132426;28;19946;-42
2023/12/02 07:40:43;;;;;;;;;;;;;;;;;;5133098;28;20006;-43
2023/12/02 07:43:09;;;;;;;;;;;;;;;;;;5133097;28;19962;-43
2023/12/02 07:45:34;;;;;;;;;;;;;;;;;;5132200;28;20264;-44
2023/12/02 07:51:09;;;;;;;;;;;;;;;;;;5130496;28;20278;-45
2023/12/02 07:53:35;;;;;;;;;;;;;;;;;;5137012;28;19924;-43
2023/12/02 07:56:00;;;;;;;;;;;;;;;;;;5136763;28;20014;-42
2023/12/02 07:58:26;;;;;;;;;;;;;;;;;;5136197;27;19923;-45
2023/12/02 08:00:51;;;;;;;;;;;;;;;;;;5136471;28;19928;-42
2023/12/02 08:03:17;;;;;;;;;;;;;;;;;;5136559;28;20010;-42
2023/12/02 08:05:44;;;;;;;;;;;;;;;;;;5135983;28;19927;-42
2023/12/02 08:08:09;;;;;;;;;;;;;;;;;;5135303;28;19934;-47
2023/12/02 08:10:35;;;;;;;;;;;;;;;;;;5134385;28;19924;-45
2023/12/02 08:13:00;;;;;;;;;;;;;;;;;;5136686;28;19923;-46
2023/12/02 08:15:26;;;;;;;;;;;;;;;;;;5136215;28;19966;-45
2023/12/02 08:17:51;;;;;;;;;;;;;;;;;;5136300;28;19924;-45
2023/12/02 08:20:17;;;;;;;;;;;;;;;;;;5136123;28;19930;-44
2023/12/02 08:22:43;;;;;;;;;;;;;;;;;;5136537;28;19992;-43
2023/12/02 08:25:08;;;;;;;;;;;;;;;;;;5135862;28;20010;-44
2023/12/02 08:27:33;;;;;;;;;;;;;;;;;;5135513;28;20010;-42
2023/12/02 08:29:59;;;;;;;;;;;;;;;;;;5135815;28;19927;-45
2023/12/02 08:32:24;;;;;;;;;;;;;;;;;;5135683;28;19923;-45
2023/12/02 08:34:50;;;;;;;;;;;;;;;;;;5135730;28;19923;-44
2023/12/02 08:37:15;;;;;;;;;;;;;;;;;;5135966;28;20315;-43
2023/12/02 08:39:41;;;;;;;;;;;;;;;;;;5135273;28;19966;-46
2023/12/02 08:42:06;;;;;;;;;;;;;;;;;;5135968;28;19930;-43
2023/12/02 08:44:32;;;;;;;;;;;;;;;;;;5135468;28;20451;-46
2023/12/02 08:47:00;;;;;;;;;;;;;;;;;;5135370;28;20311;-46
2023/12/02 08:49:26;;;;;;;;;;;;;;;;;;5135507;28;20101;-47
2023/12/02 08:51:51;;;;;;;;;;;;;;;;;;5135887;28;19991;-45
2023/12/02 08:54:17;;;;;;;;;;;;;;;;;;5136028;28;19924;-46
2023/12/02 08:56:42;;;;;;;;;;;;;;;;;;5135800;28;20390;-45
2023/12/02 08:59:08;;;;;;;;;;;;;;;;;;5134324;27;20352;-44
2023/12/02 09:01:33;;;;;;;;;;;;;;;;;;5135634;28;20380;-42
2023/12/02 09:03:59;;;;;;;;;;;;;;;;;;5135510;28;19923;-43
2023/12/02 09:06:24;;;;;;;;;;;;;;;;;;5135160;28;19923;-44
2023/12/02 09:08:50;;;;;;;;;;;;;;;;;;5134456;28;19959;-43
2023/12/02 09:11:15;;;;;;;;;;;;;;;;;;5135121;28;20005;-45
2023/12/02 09:13:42;;;;;;;;;;;;;;;;;;5134977;28;19923;-43
2023/12/02 09:16:07;;;;;;;;;;;;;;;;;;5135549;28;19950;-42
2023/12/02 09:18:33;;;;;;;;;;;;;;;;;;5135290;28;20386;-43
2023/12/02 09:20:58;;;;;;;;;;;;;;;;;;5135193;28;20398;-46
2023/12/02 09:23:24;;;;;;;;;;;;;;;;;;5135615;28;19928;-42
2023/12/02 09:25:51;;;;;;;;;;;;;;;;;;5134763;28;19976;-42
2023/12/02 09:28:16;;;;;;;;;;;;;;;;;;5134650;28;19924;-42
2023/12/02 09:30:42;;;;;;;;;;;;;;;;;;5134535;28;19931;-43
2023/12/02 09:33:08;;;;;;;;;;;;;;;;;;5135199;28;20426;-43
2023/12/02 09:35:33;;;;;;;;;;;;;;;;;;5134570;28;19932;-44
2023/12/02 09:37:58;;;;;;;;;;;;;;;;;;5134406;28;19962;-44
2023/12/02 09:40:24;;;;;;;;;;;;;;;;;;5134411;28;20401;-44
2023/12/02 09:42:50;;;;;;;;;;;;;;;;;;5135010;28;19927;-44
2023/12/02 09:45:15;;;;;;;;;;;;;;;;;;5134515;28;20375;-47
2023/12/02 09:47:41;;;;;;;;;;;;;;;;;;5134432;28;20332;-43
2023/12/02 09:50:06;;;;;;;;;;;;;;;;;;5134434;28;19923;-43
2023/12/02 09:52:32;;;;;;;;;;;;;;;;;;5134964;28;19979;-42
2023/12/02 09:54:58;;;;;;;;;;;;;;;;;;5135091;28;20267;-43
2023/12/02 09:57:23;;;;;;;;;;;;;;;;;;5134885;28;19955;-45
2023/12/02 09:59:49;;;;;;;;;;;;;;;;;;5134265;28;19924;-43
2023/12/02 10:02:14;;;;;;;;;;;;;;;;;;5134579;28;19924;-42
2023/12/02 10:04:39;;;;;;;;;;;;;;;;;;5134534;28;19969;-42
2023/12/02 10:07:05;;;;;;;;;;;;;;;;;;5134182;28;19923;-44
2023/12/02 10:09:30;;;;;;;;;;;;;;;;;;5132983;27;20380;-46
2023/12/02 10:11:56;;;;;;;;;;;;;;;;;;5133469;28;20080;-45
2023/12/02 10:14:21;;;;;;;;;;;;;;;;;;5134315;28;20006;-46
2023/12/02 10:16:48;;;;;;;;;;;;;;;;;;5134743;28;20349;-42
2023/12/02 10:19:14;;;;;;;;;;;;;;;;;;5134099;28;19951;-43
2023/12/02 10:21:39;;;;;;;;;;;;;;;;;;5133749;28;19962;-41
2023/12/02 10:24:05;;;;;;;;;;;;;;;;;;5133960;28;20002;-47
2023/12/02 10:26:30;;;;;;;;;;;;;;;;;;5134043;28;19923;-44
2023/12/02 10:28:56;;;;;;;;;;;;;;;;;;5133509;28;19974;-44
2023/12/02 10:31:22;;;;;;;;;;;;;;;;;;5133473;28;19973;-46
2023/12/02 10:33:47;;;;;;;;;;;;;;;;;;5133690;28;19923;-42
2023/12/02 10:36:13;;;;;;;;;;;;;;;;;;5132909;28;19983;-43
2023/12/02 10:38:38;;;;;;;;;;;;;;;;;;5133081;28;20064;-43
2023/12/02 10:41:04;;;;;;;;;;;;;;;;;;5133657;28;20026;-43
2023/12/02 10:43:30;;;;;;;;;;;;;;;;;;5134144;28;19928;-44
2023/12/02 10:45:55;;;;;;;;;;;;;;;;;;5133657;28;19977;-43
2023/12/02 10:48:21;;;;;;;;;;;;;;;;;;5134012;28;19955;-43
2023/12/02 10:50:48;;;;;;;;;;;;;;;;;;5133760;28;20334;-44
2023/12/02 10:53:13;;;;;;;;;;;;;;;;;;5133581;28;20004;-45
2023/12/02 10:55:39;;;;;;;;;;;;;;;;;;5133568;28;20415;-45
2023/12/02 10:58:04;;;;;;;;;;;;;;;;;;5133760;28;19970;-43
2023/12/02 11:00:30;;;;;;;;;;;;;;;;;;5133289;28;19924;-43
2023/12/02 11:02:55;;;;;;;;;;;;;;;;;;5133607;28;19930;-44
2023/12/02 11:05:21;;;;;;;;;;;;;;;;;;5133797;28;19966;-42
2023/12/02 11:07:47;;;;;;;;;;;;;;;;;;5133617;28;19972;-46
2023/12/02 11:10:13;;;;;;;;;;;;;;;;;;5133325;28;19923;-45
2023/12/02 11:12:38;;;;;;;;;;;;;;;;;;5132571;28;19931;-46
2023/12/02 11:15:04;;;;;;;;;;;;;;;;;;5132956;28;19966;-45
2023/12/02 11:17:29;;;;;;;;;;;;;;;;;;5133481;28;19924;-46
2023/12/02 11:19:55;;;;;;;;;;;;;;;;;;5133311;28;19923;-47
2023/12/02 11:22:20;;;;;;;;;;;;;;;;;;5132754;27;20014;-43
2023/12/02 11:24:46;;;;;;;;;;;;;;;;;;5133590;28;19927;-42
2023/12/02 11:27:11;;;;;;;;;;;;;;;;;;5133577;28;19924;-48
2023/12/02 11:29:37;;;;;;;;;;;;;;;;;;5133187;28;19927;-47
2023/12/02 11:32:03;;;;;;;;;;;;;;;;;;5132088;27;21085;-45
2023/12/02 11:34:29;;;;;;;;;;;;;;;;;;5132868;28;20367;-45
2023/12/02 11:36:54;;;;;;;;;;;;;;;;;;5132673;28;19963;-45
2023/12/02 11:39:21;;;;;;;;;;;;;;;;;;5132200;28;19931;-42
2023/12/02 11:41:47;;;;;;;;;;;;;;;;;;5132545;28;19924;-45
2023/12/02 11:44:12;;;;;;;;;;;;;;;;;;5132944;28;19968;-44
2023/12/02 11:46:38;;;;;;;;;;;;;;;;;;5133096;28;19927;-42
2023/12/02 11:49:03;;;;;;;;;;;;;;;;;;5133031;28;19930;-46
2023/12/02 11:51:29;;;;;;;;;;;;;;;;;;5133014;28;19931;-45
2023/12/02 11:53:54;;;;;;;;;;;;;;;;;;5132777;28;19927;-46
2023/12/02 11:56:20;;;;;;;;;;;;;;;;;;5132771;28;20316;-46
2023/12/02 11:58:46;;;;;;;;;;;;;;;;;;5132788;28;19924;-42
2023/12/02 12:01:11;;;;;;;;;;;;;;;;;;5132620;28;19923;-44
2023/12/02 12:03:37;;;;;;;;;;;;;;;;;;5132725;28;19924;-44
2023/12/02 12:06:02;;;;;;;;;;;;;;;;;;5132761;28;19962;-42
2023/12/02 12:08:28;;;;;;;;;;;;;;;;;;5132715;28;19971;-44
2023/12/02 12:10:53;;;;;;;;;;;;;;;;;;5131407;27;19973;-45
2023/12/02 12:13:18;;;;;;;;;;;;;;;;;;5112179;28;19976;-46
2023/12/02 12:15:44;;;;;;;;;;;;;;;;;;5131708;28;19927;-46
2023/12/02 12:18:10;;;;;;;;;;;;;;;;;;5132684;28;20356;-45
2023/12/02 12:20:36;;;;;;;;;;;;;;;;;;5132468;28;20014;-45
2023/12/02 12:23:02;;;;;;;;;;;;;;;;;;5132458;28;19930;-47
2023/12/02 12:25:29;;;;;;;;;;;;;;;;;;5132751;28;20030;-46
2023/12/02 12:27:54;;;;;;;;;;;;;;;;;;5132757;28;20375;-45
2023/12/02 12:30:20;;;;;;;;;;;;;;;;;;5132037;28;19979;-47
2023/12/02 12:32:45;;;;;;;;;;;;;;;;;;5132466;27;20415;-43
2023/12/02 12:35:11;;;;;;;;;;;;;;;;;;5135472;28;19971;-41
2023/12/02 12:37:37;;;;;;;;;;;;;;;;;;5135713;28;20374;-46
2023/12/02 12:40:03;;;;;;;;;;;;;;;;;;5135087;28;19924;-42
2023/12/02 12:42:28;;;;;;;;;;;;;;;;;;5134960;28;19951;-42
2023/12/02 12:44:54;;;;;;;;;;;;;;;;;;5135682;28;20015;-46
2023/12/02 12:47:19;;;;;;;;;;;;;;;;;;5135990;28;20310;-44
2023/12/02 12:49:45;;;;;;;;;;;;;;;;;;5135509;28;20010;-44
2023/12/02 12:52:13;;;;;;;;;;;;;;;;;;5135509;28;19952;-45
2023/12/02 12:54:38;;;;;;;;;;;;;;;;;;5135508;28;20479;-46
2023/12/02 12:57:04;;;;;;;;;;;;;;;;;;5135046;28;19927;-44
2023/12/02 12:59:29;;;;;;;;;;;;;;;;;;5135915;28;19928;-45
2023/12/02 13:01:55;;;;;;;;;;;;;;;;;;5135169;28;19963;-45
2023/12/02 13:04:20;;;;;;;;;;;;;;;;;;5135470;28;19972;-42
2023/12/02 13:06:46;;;;;;;;;;;;;;;;;;5135643;28;20346;-44
2023/12/02 13:09:12;;;;;;;;;;;;;;;;;;5135417;28;19953;-43
2023/12/02 13:11:38;;;;;;;;;;;;;;;;;;5135385;28;19974;-45
2023/12/02 13:14:04;;;;;;;;;;;;;;;;;;5134848;28;19951;-46
2023/12/02 13:16:29;;;;;;;;;;;;;;;;;;5134737;27;19958;-43
2023/12/02 13:18:55;;;;;;;;;;;;;;;;;;5135346;28;19928;-43
2023/12/02 13:21:20;;;;;;;;;;;;;;;;;;5134817;28;19968;-43
2023/12/02 13:23:46;;;;;;;;;;;;;;;;;;5134837;28;20320;-43
2023/12/02 13:26:11;;;;;;;;;;;;;;;;;;5135354;28;20023;-47
2023/12/02 13:28:37;;;;;;;;;;;;;;;;;;5135578;28;19952;-42
2023/12/02 13:31:03;;;;;;;;;;;;;;;;;;5135007;28;20264;-45
2023/12/02 13:33:28;;;;;;;;;;;;;;;;;;5134901;28;20019;-44
2023/12/02 13:35:54;;;;;;;;;;;;;;;;;;5134721;28;20405;-44
2023/12/02 13:38:19;;;;;;;;;;;;;;;;;;5134549;28;20002;-45
2023/12/02 13:40:45;;;;;;;;;;;;;;;;;;5134567;28;19971;-44
2023/12/02 13:43:10;;;;;;;;;;;;;;;;;;5133912;28;19965;-42
2023/12/02 13:45:36;;;;;;;;;;;;;;;;;;5134457;27;19927;-45
2023/12/02 13:48:02;;;;;;;;;;;;;;;;;;5135223;28;19924;-44
2023/12/02 13:50:28;;;;;;;;;;;;;;;;;;5134567;28;19923;-42
2023/12/02 13:52:53;;;;;;;;;;;;;;;;;;5134833;28;19955;-44
2023/12/02 13:55:18;;;;;;;;;;;;;;;;;;5134221;28;19931;-44
2023/12/02 13:57:44;;;;;;;;;;;;;;;;;;5134605;28;20145;-43
2023/12/02 14:00:11;;;;;;;;;;;;;;;;;;5134889;28;19971;-44
2023/12/02 14:02:37;;;;;;;;;;;;;;;;;;5134166;28;19924;-43
2023/12/02 14:05:05;;;;;;;;;;;;;;;;;;5134638;28;19966;-43
2023/12/02 14:07:31;;;;;;;;;;;;;;;;;;5134354;27;19988;-45
2023/12/02 14:09:58;;;;;;;;;;;;;;;;;;5134141;27;20282;-45
2023/12/02 14:12:23;;;;;;;;;;;;;;;;;;5134468;28;19977;-45
2023/12/02 14:14:49;;;;;;;;;;;;;;;;;;5133831;28;19930;-45
2023/12/02 14:17:14;;;;;;;;;;;;;;;;;;5133932;28;19975;-43
2023/12/02 14:19:39;;;;;;;;;;;;;;;;;;5133961;28;20079;-44
2023/12/02 14:22:05;;;;;;;;;;;;;;;;;;5133967;28;19931;-44
2023/12/02 14:24:31;;;;;;;;;;;;;;;;;;5134159;28;20026;-46
2023/12/02 14:26:56;;;;;;;;;;;;;;;;;;5134299;28;19923;-44
2023/12/02 14:29:21;;;;;;;;;;;;;;;;;;5134583;28;20418;-45
2023/12/02 14:31:47;;;;;;;;;;;;;;;;;;5134235;28;19923;-44
2023/12/02 14:34:12;;;;;;;;;;;;;;;;;;5133884;28;20014;-46
2023/12/02 14:36:38;;;;;;;;;;;;;;;;;;5133596;28;20446;-46
2023/12/02 14:39:04;;;;;;;;;;;;;;;;;;5133735;28;19924;-46
2023/12/02 14:41:29;;;;;;;;;;;;;;;;;;5133674;28;19923;-43
2023/12/02 14:43:55;;;;;;;;;;;;;;;;;;5132371;28;19931;-44
2023/12/02 14:46:21;;;;;;;;;;;;;;;;;;5132505;28;19931;-45
2023/12/02 14:48:47;;;;;;;;;;;;;;;;;;5133143;28;19930;-46
2023/12/02 14:51:12;;;;;;;;;;;;;;;;;;5133687;28;19955;-44
2023/12/02 14:53:38;;;;;;;;;;;;;;;;;;5132995;28;19924;-46
2023/12/02 14:56:03;;;;;;;;;;;;;;;;;;5132143;27;20009;-43
2023/12/02 14:58:29;;;;;;;;;;;;;;;;;;5133612;28;20459;-46
2023/12/02 15:00:54;;;;;;;;;;;;;;;;;;5133976;28;20018;-43
2023/12/02 15:03:20;;;;;;;;;;;;;;;;;;5133955;28;19966;-43
2023/12/02 15:05:46;;;;;;;;;;;;;;;;;;5133275;28;20021;-44
2023/12/02 15:08:12;;;;;;;;;;;;;;;;;;5132849;28;20414;-43
2023/12/02 15:10:37;;;;;;;;;;;;;;;;;;5133436;28;20023;-46
2023/12/02 15:13:07;;;;;;;;;;;;;;;;;;5133504;28;19923;-45
2023/12/02 15:15:32;;;;;;;;;;;;;;;;;;5132827;28;20015;-43
2023/12/02 15:17:58;;;;;;;;;;;;;;;;;;5133144;28;20041;-45
2023/12/02 15:20:23;;;;;;;;;;;;;;;;;;5132407;28;19927;-44
2023/12/02 15:22:49;;;;;;;;;;;;;;;;;;5132434;28;20024;-45
2023/12/02 15:25:14;;;;;;;;;;;;;;;;;;5133344;28;20028;-43
2023/12/02 15:27:39;;;;;;;;;;;;;;;;;;5133490;28;19998;-46
2023/12/02 15:30:05;;;;;;;;;;;;;;;;;;5133183;28;19927;-44
2023/12/02 15:32:30;;;;;;;;;;;;;;;;;;5133325;28;19924;-43
2023/12/02 15:34:56;;;;;;;;;;;;;;;;;;5132320;28;19963;-43
2023/12/02 15:37:21;;;;;;;;;;;;;;;;;;5133206;28;20389;-45
2023/12/02 15:39:47;;;;;;;;;;;;;;;;;;5132798;28;20324;-41
2023/12/02 15:42:12;;;;;;;;;;;;;;;;;;5132666;28;19931;-45
2023/12/02 15:44:38;;;;;;;;;;;;;;;;;;5132545;28;20018;-43
2023/12/02 15:47:04;;;;;;;;;;;;;;;;;;5133086;28;20360;-45
2023/12/02 15:49:29;;;;;;;;;;;;;;;;;;5133219;28;19967;-46
2023/12/02 15:51:55;;;;;;;;;;;;;;;;;;5132979;28;20060;-44
2023/12/02 15:54:22;;;;;;;;;;;;;;;;;;5132593;28;19923;-44
2023/12/02 15:56:47;;;;;;;;;;;;;;;;;;5132603;28;20480;-45
2023/12/02 15:59:13;;;;;;;;;;;;;;;;;;5132782;28;20018;-47
2023/12/02 16:01:38;;;;;;;;;;;;;;;;;;5133000;28;20279;-45
2023/12/02 16:04:04;;;;;;;;;;;;;;;;;;5133180;28;20018;-44
2023/12/02 16:06:29;;;;;;;;;;;;;;;;;;5132781;28;20373;-45
2023/12/02 16:08:55;;;;;;;;;;;;;;;;;;5135067;27;19980;-45
2023/12/02 16:11:20;;;;;;;;;;;;;;;;;;5135747;28;19930;-44
2023/12/02 16:13:46;;;;;;;;;;;;;;;;;;5128971;28;20015;-45
2023/12/02 16:16:12;;;;;;;;;;;;;;;;;;5115434;28;19970;-46
2023/12/02 16:18:37;;;;;;;;;;;;;;;;;;5115045;28;19934;-46
2023/12/02 16:21:03;;;;;;;;;;;;;;;;;;5115950;28;19967;-44
2023/12/02 16:23:28;;;;;;;;;;;;;;;;;;5115715;28;20023;-44
2023/12/02 16:25:54;;;;;;;;;;;;;;;;;;5115822;28;19975;-45
2023/12/02 16:28:19;;;;;;;;;;;;;;;;;;5115830;28;19963;-46
2023/12/02 16:30:46;;;;;;;;;;;;;;;;;;5115760;28;19936;-45
2023/12/02 16:33:11;;;;;;;;;;;;;;;;;;5115550;28;20361;-42
2023/12/02 16:35:40;;;;;;;;;;;;;;;;;;5115267;28;20354;-45
2023/12/02 16:38:05;;;;;;;;;;;;;;;;;;5114506;28;20010;-45